Time;durP1;ratioP1;P1;durP2;ratioP2;P2;SDS_P1;SDS_P2;PMS_P1;PMS_P2;Temp;Humidity;BMP_temperature;BMP_pressure;BME280_temperature;BME280_humidity;BME280_pressure;Samples;Min_cycle;Max_cycle;Signal;HPM_P1;HPM_P2
2024/04/01 00:00:33;;;;;;;5.33;2.37;;;11.70;99.90;;;;;;5054278;28;20234;-75
2024/04/01 00:02:59;;;;;;;5.87;2.07;;;11.70;99.90;;;;;;5054426;28;20235;-75
2024/04/01 00:05:26;;;;;;;5.80;1.53;;;11.60;99.90;;;;;;5054243;28;20208;-75
2024/04/01 00:07:52;;;;;;;4.67;1.90;;;11.60;99.90;;;;;;5054416;28;20200;-75
2024/04/01 00:10:19;;;;;;;6.50;1.90;;;11.60;99.90;;;;;;5053971;28;20319;-74
2024/04/01 00:12:46;;;;;;;6.90;2.10;;;11.70;99.90;;;;;;5053947;28;20208;-75
2024/04/01 00:15:13;;;;;;;5.60;1.83;;;11.70;99.90;;;;;;5054078;28;20215;-75
2024/04/01 00:17:40;;;;;;;4.27;1.70;;;11.70;99.90;;;;;;5054141;28;20212;-74
2024/04/01 00:20:07;;;;;;;6.43;1.97;;;11.70;99.90;;;;;;5053919;28;20216;-74
2024/04/01 00:22:33;;;;;;;7.37;2.30;;;11.60;99.90;;;;;;5058579;28;20197;-76
2024/04/01 00:25:00;;;;;;;6.53;2.13;;;11.60;99.90;;;;;;5053694;28;20296;-76
2024/04/01 00:27:26;;;;;;;4.63;2.00;;;11.60;99.90;;;;;;5054207;28;20232;-76
2024/04/01 00:29:54;;;;;;;8.70;2.20;;;11.50;99.90;;;;;;5053762;28;20232;-76
2024/04/01 00:32:20;;;;;;;4.70;2.03;;;11.60;99.90;;;;;;5053779;28;20266;-76
2024/04/01 00:34:47;;;;;;;4.80;1.80;;;11.50;99.90;;;;;;5053739;28;20244;-75
2024/04/01 00:37:13;;;;;;;4.40;1.90;;;11.60;99.90;;;;;;5053973;28;20593;-76
2024/04/01 00:39:40;;;;;;;7.57;2.10;;;11.60;99.90;;;;;;5056441;28;20251;-75
2024/04/01 00:42:06;;;;;;;6.43;1.90;;;11.50;99.90;;;;;;5054252;28;20314;-75
2024/04/01 00:44:33;;;;;;;5.23;1.87;;;11.50;99.90;;;;;;5053737;28;20295;-75
2024/04/01 00:47:01;;;;;;;5.30;2.37;;;11.50;99.90;;;;;;5054218;28;20208;-75
2024/04/01 00:49:27;;;;;;;5.80;1.90;;;11.50;99.90;;;;;;5053896;28;20212;-75
2024/04/01 00:51:54;;;;;;;2.03;1.47;;;11.50;99.90;;;;;;5055632;28;20360;-75
2024/04/01 00:54:21;;;;;;;6.10;1.80;;;11.40;99.90;;;;;;5055060;28;20207;-74
2024/04/01 00:56:48;;;;;;;5.30;1.97;;;11.40;99.90;;;;;;5055756;28;20299;-75
2024/04/01 00:59:16;;;;;;;7.37;2.30;;;11.40;99.90;;;;;;5054548;28;20220;-75
2024/04/01 01:01:44;;;;;;;2.93;1.53;;;11.30;99.90;;;;;;5054183;28;20254;-75
2024/04/01 01:04:13;;;;;;;8.17;1.90;;;11.30;99.90;;;;;;5054013;28;20208;-75
2024/04/01 01:06:39;;;;;;;4.40;1.73;;;11.30;99.90;;;;;;5054005;28;20291;-74
2024/04/01 01:09:06;;;;;;;2.53;1.67;;;11.40;99.90;;;;;;5053709;28;20649;-75
2024/04/01 01:11:32;;;;;;;7.80;2.40;;;11.40;99.90;;;;;;5053799;28;20709;-75
2024/04/01 01:14:00;;;;;;;7.63;2.70;;;11.20;99.90;;;;;;5054859;28;20208;-75
2024/04/01 01:16:26;;;;;;;8.63;3.03;;;11.20;99.90;;;;;;5054932;28;20214;-75
2024/04/01 01:18:54;;;;;;;10.40;2.87;;;11.10;99.90;;;;;;5054846;28;20314;-75
2024/04/01 01:21:21;;;;;;;6.10;2.40;;;11.10;99.90;;;;;;5055295;28;20239;-74
2024/04/01 01:23:49;;;;;;;8.93;2.63;;;11.00;99.90;;;;;;5053760;28;20212;-74
2024/04/01 01:26:15;;;;;;;7.17;2.93;;;11.00;99.90;;;;;;5053695;28;20226;-74
2024/04/01 01:28:42;;;;;;;3.87;2.07;;;11.00;99.90;;;;;;5053772;28;20199;-74
2024/04/01 01:31:08;;;;;;;7.43;2.50;;;11.00;99.90;;;;;;5053685;28;20295;-75
2024/04/01 01:33:35;;;;;;;6.00;2.80;;;11.00;99.90;;;;;;5054320;28;20287;-75
2024/04/01 01:36:01;;;;;;;4.27;2.23;;;10.90;99.90;;;;;;5053568;28;20739;-75
2024/04/01 01:38:28;;;;;;;7.97;2.80;;;10.90;99.90;;;;;;5053740;28;20228;-75
2024/04/01 01:40:55;;;;;;;5.97;2.53;;;10.80;99.90;;;;;;5053693;28;20254;-75
2024/04/01 01:43:22;;;;;;;4.37;2.47;;;10.80;99.90;;;;;;5053997;28;20208;-75
2024/04/01 01:45:48;;;;;;;7.93;2.30;;;10.80;99.90;;;;;;5072773;28;20196;-76
2024/04/01 01:48:15;;;;;;;6.77;2.13;;;10.80;99.90;;;;;;5078359;28;20192;-75
2024/04/01 01:50:41;;;;;;;5.07;2.10;;;10.80;99.90;;;;;;5068437;28;20263;-75
2024/04/01 01:53:09;;;;;;;4.73;2.03;;;10.70;99.90;;;;;;5054315;28;20243;-75
2024/04/01 01:55:34;;;;;;;6.27;2.57;;;10.70;99.90;;;;;;5053893;28;20208;-74
2024/04/01 01:58:03;;;;;;;7.27;1.70;;;10.60;99.90;;;;;;5053332;28;20230;-74
2024/04/01 02:00:28;;;;;;;6.63;2.10;;;10.60;99.90;;;;;;5053226;28;20228;-75
2024/04/01 02:02:56;;;;;;;3.37;1.60;;;10.50;99.90;;;;;;5053732;28;20302;-75
2024/04/01 02:05:22;;;;;;;3.60;1.90;;;10.60;99.90;;;;;;5053131;28;20212;-74
2024/04/01 02:07:49;;;;;;;5.87;1.50;;;10.50;99.90;;;;;;5052784;28;20254;-74
2024/04/01 02:10:21;;;;;;;4.07;1.97;;;10.40;99.90;;;;;;5056732;28;20394;-75
2024/04/01 02:12:48;;;;;;;4.23;1.90;;;10.40;99.90;;;;;;5057158;28;20200;-74
2024/04/01 02:15:18;;;;;;;7.67;2.43;;;10.30;99.90;;;;;;5056486;28;20665;-75
2024/04/01 02:17:45;;;;;;;7.67;2.00;;;10.30;99.90;;;;;;5057344;28;20208;-75
2024/04/01 02:20:15;;;;;;;6.33;2.17;;;10.30;99.90;;;;;;5056165;28;20324;-75
2024/04/01 02:22:43;;;;;;;6.57;2.20;;;10.30;99.90;;;;;;5056596;28;20207;-74
2024/04/01 02:25:09;;;;;;;2.43;2.00;;;10.40;99.90;;;;;;5056781;28;20681;-75
2024/04/01 02:27:36;;;;;;;7.73;2.30;;;10.30;99.90;;;;;;5056183;28;20219;-74
2024/04/01 02:30:02;;;;;;;5.43;2.43;;;10.30;99.90;;;;;;5056983;28;20204;-74
2024/04/01 02:32:31;;;;;;;3.67;2.10;;;10.30;99.90;;;;;;5056707;28;20204;-74
2024/04/01 02:34:56;;;;;;;6.37;2.20;;;10.30;99.90;;;;;;5056797;28;20212;-74
2024/04/01 02:37:23;;;;;;;4.77;2.10;;;10.30;99.90;;;;;;5056625;28;20200;-74
2024/04/01 02:39:49;;;;;;;8.60;2.40;;;10.30;99.90;;;;;;5057105;28;20224;-73
2024/04/01 02:42:16;;;;;;;3.43;2.00;;;10.30;99.90;;;;;;5057048;28;20236;-74
2024/04/01 02:44:42;;;;;;;4.93;2.13;;;10.20;99.90;;;;;;5056732;28;20204;-74
2024/04/01 02:47:09;;;;;;;5.07;2.30;;;10.20;99.90;;;;;;5056892;28;20204;-74
2024/04/01 02:49:36;;;;;;;5.00;2.23;;;10.20;99.90;;;;;;5056039;28;20239;-74
2024/04/01 02:52:03;;;;;;;6.70;1.90;;;10.10;99.90;;;;;;5057688;28;20267;-74
2024/04/01 02:54:30;;;;;;;10.67;2.30;;;10.10;99.90;;;;;;5056784;28;20204;-75
2024/04/01 02:56:57;;;;;;;6.80;2.23;;;10.10;99.90;;;;;;5055943;28;20261;-75
2024/04/01 02:59:23;;;;;;;3.73;2.43;;;10.10;99.90;;;;;;5056311;28;20231;-74
2024/04/01 03:01:50;;;;;;;7.03;1.93;;;10.00;99.90;;;;;;5055570;28;20226;-75
2024/04/01 03:04:16;;;;;;;4.53;1.90;;;10.00;99.90;;;;;;5055687;28;20212;-75
2024/04/01 03:06:44;;;;;;;5.47;2.17;;;9.90;99.90;;;;;;5055698;28;20208;-74
2024/04/01 03:09:10;;;;;;;5.10;2.30;;;9.80;99.90;;;;;;5055490;28;20201;-74
2024/04/01 03:11:37;;;;;;;5.30;2.80;;;9.80;99.90;;;;;;5055423;28;20273;-74
2024/04/01 03:14:03;;;;;;;5.13;3.20;;;9.80;99.90;;;;;;5055565;28;20239;-74
2024/04/01 03:16:30;;;;;;;4.83;2.27;;;9.80;99.90;;;;;;5055121;28;20254;-74
2024/04/01 03:18:57;;;;;;;3.97;2.40;;;9.80;99.90;;;;;;5054954;28;20238;-75
2024/04/01 03:21:24;;;;;;;3.73;2.20;;;9.80;99.90;;;;;;5054921;28;20732;-75
2024/04/01 03:23:52;;;;;;;2.83;2.43;;;9.80;99.90;;;;;;5055366;28;20204;-75
2024/04/01 03:26:19;;;;;;;7.53;3.20;;;9.70;99.90;;;;;;5056190;28;20700;-74
2024/04/01 03:28:45;;;;;;;4.63;2.63;;;9.70;99.90;;;;;;5055111;28;20204;-74
2024/04/01 03:31:12;;;;;;;6.00;2.83;;;9.70;99.90;;;;;;5055538;28;20232;-74
2024/04/01 03:33:37;;;;;;;5.20;2.60;;;9.80;99.90;;;;;;5056655;28;20219;-74
2024/04/01 03:36:05;;;;;;;4.93;2.73;;;9.80;99.90;;;;;;5057356;28;20200;-75
2024/04/01 03:38:32;;;;;;;5.60;2.60;;;9.90;99.90;;;;;;5054844;28;20264;-75
2024/04/01 03:41:00;;;;;;;4.47;2.43;;;9.90;99.90;;;;;;5054775;28;20709;-75
2024/04/01 03:43:26;;;;;;;4.50;2.33;;;9.90;99.90;;;;;;5054739;28;20204;-75
2024/04/01 03:45:59;;;;;;;6.13;2.40;;;9.90;99.90;;;;;;5054939;28;20726;-75
2024/04/01 03:48:25;;;;;;;4.80;2.93;;;9.90;99.90;;;;;;5056113;28;20208;-75
2024/04/01 03:50:52;;;;;;;7.13;2.53;;;9.80;99.90;;;;;;5054819;28;20334;-75
2024/04/01 03:53:18;;;;;;;5.80;2.43;;;9.80;99.90;;;;;;5056955;28;20294;-75
2024/04/01 03:55:45;;;;;;;4.90;2.83;;;9.70;99.90;;;;;;5054678;28;20250;-75
2024/04/01 03:58:13;;;;;;;9.70;2.73;;;9.70;99.90;;;;;;5054731;28;20295;-75
2024/04/01 04:00:39;;;;;;;6.23;2.60;;;9.70;99.90;;;;;;5054610;28;20242;-75
2024/04/01 04:03:07;;;;;;;6.00;2.30;;;9.70;99.90;;;;;;5054711;28;20294;-75
2024/04/01 04:05:34;;;;;;;8.17;2.73;;;9.70;99.90;;;;;;5054439;28;20216;-75
2024/04/01 04:08:01;;;;;;;6.10;2.83;;;9.80;99.90;;;;;;5054520;28;20314;-75
2024/04/01 04:10:28;;;;;;;4.93;2.20;;;9.80;99.90;;;;;;5054347;28;20220;-75
2024/04/01 04:12:55;;;;;;;2.67;2.10;;;9.80;99.90;;;;;;5054296;28;20295;-75
2024/04/01 04:15:23;;;;;;;6.77;2.97;;;9.80;99.90;;;;;;5054449;28;20235;-75
2024/04/01 04:17:49;;;;;;;7.83;3.03;;;9.70;99.90;;;;;;5054001;28;20295;-75
2024/04/01 04:20:16;;;;;;;5.00;2.70;;;9.70;99.90;;;;;;5053903;28;20314;-75
2024/04/01 04:22:45;;;;;;;3.93;2.33;;;9.70;99.90;;;;;;5054196;28;20345;-75
2024/04/01 04:25:12;;;;;;;4.50;2.70;;;9.70;99.90;;;;;;5053833;28;20239;-75
2024/04/01 04:27:38;;;;;;;6.23;2.60;;;9.70;99.90;;;;;;5056919;28;20218;-75
2024/04/01 04:30:08;;;;;;;4.50;2.50;;;9.70;99.90;;;;;;5053787;28;20201;-75
2024/04/01 04:32:39;;;;;;;4.17;2.60;;;9.60;99.90;;;;;;5055448;28;20197;-75
2024/04/01 04:35:08;;;;;;;6.17;2.50;;;9.50;99.90;;;;;;5055130;28;20247;-74
2024/04/01 04:37:35;;;;;;;4.23;2.87;;;9.50;99.90;;;;;;5055864;28;20624;-75
2024/04/01 04:40:02;;;;;;;8.67;3.00;;;9.50;99.90;;;;;;5055661;28;20256;-75
2024/04/01 04:42:28;;;;;;;6.47;4.10;;;9.50;99.90;;;;;;5053633;28;20747;-76
2024/04/01 04:44:55;;;;;;;16.63;8.53;;;9.50;99.90;;;;;;5053990;28;20287;-76
2024/04/01 04:47:21;;;;;;;15.37;7.80;;;9.40;99.90;;;;;;5053880;28;20302;-76
2024/04/01 04:49:49;;;;;;;11.27;5.33;;;9.50;99.90;;;;;;5053770;28;20294;-75
2024/04/01 04:52:15;;;;;;;11.77;4.53;;;9.40;99.90;;;;;;5053498;28;20228;-76
2024/04/01 04:54:42;;;;;;;10.10;4.90;;;9.40;99.90;;;;;;5053746;28;20298;-76
2024/04/01 04:57:08;;;;;;;6.77;4.27;;;9.40;99.90;;;;;;5053823;28;20590;-75
2024/04/01 04:59:35;;;;;;;6.17;3.37;;;9.40;99.90;;;;;;5055940;28;20292;-75
2024/04/01 05:02:06;;;;;;;6.33;3.67;;;9.40;99.90;;;;;;5054431;28;20725;-76
2024/04/01 05:04:33;;;;;;;10.50;3.63;;;9.40;99.90;;;;;;5053399;28;20199;-75
2024/04/01 05:07:01;;;;;;;6.33;3.53;;;9.50;99.90;;;;;;5053563;28;20308;-75
2024/04/01 05:09:28;;;;;;;7.67;4.20;;;9.60;99.90;;;;;;5053670;28;20206;-76
2024/04/01 05:11:54;;;;;;;5.80;3.30;;;9.60;99.90;;;;;;5053515;28;20254;-76
2024/04/01 05:14:22;;;;;;;6.37;3.10;;;9.60;99.90;;;;;;5053642;28;20654;-76
2024/04/01 05:16:48;;;;;;;7.43;2.93;;;9.60;99.90;;;;;;5053512;28;20212;-76
2024/04/01 05:19:16;;;;;;;4.13;3.10;;;9.50;99.90;;;;;;5053133;28;20725;-76
2024/04/01 05:21:42;;;;;;;9.03;3.57;;;9.50;99.90;;;;;;5052859;28;20783;-76
2024/04/01 05:24:10;;;;;;;9.50;5.00;;;9.60;99.90;;;;;;5053377;28;20207;-76
2024/04/01 05:26:36;;;;;;;10.20;4.40;;;9.50;99.90;;;;;;5053121;28;20291;-76
2024/04/01 05:29:03;;;;;;;8.23;4.13;;;9.60;99.90;;;;;;5053370;28;20290;-76
2024/04/01 05:31:28;;;;;;;9.37;4.03;;;9.60;99.90;;;;;;5057249;28;20228;-75
2024/04/01 05:33:56;;;;;;;7.10;3.60;;;9.60;99.90;;;;;;5057165;28;20240;-75
2024/04/01 05:36:25;;;;;;;10.20;3.97;;;9.60;99.90;;;;;;5053262;28;20215;-75
2024/04/01 05:38:53;;;;;;;4.60;3.03;;;9.50;99.90;;;;;;5053208;28;20282;-76
2024/04/01 05:41:22;;;;;;;6.23;2.93;;;9.50;99.90;;;;;;5053262;28;20228;-75
2024/04/01 05:43:48;;;;;;;3.20;2.90;;;9.50;99.90;;;;;;5056492;28;20212;-75
2024/04/01 05:46:15;;;;;;;6.50;3.87;;;9.40;99.90;;;;;;5057398;28;20204;-75
2024/04/01 05:48:43;;;;;;;5.33;2.87;;;9.40;99.90;;;;;;5057233;28;20208;-73
2024/04/01 05:51:08;;;;;;;8.23;3.90;;;9.40;99.90;;;;;;5057246;28;20228;-73
2024/04/01 05:53:36;;;;;;;4.73;4.20;;;9.40;99.90;;;;;;5057142;28;20257;-75
2024/04/01 05:56:06;;;;;;;5.17;4.63;;;9.40;99.90;;;;;;5056938;28;20601;-76
2024/04/01 05:58:35;;;;;;;6.80;5.00;;;9.30;99.90;;;;;;5056726;28;20211;-75
2024/04/01 06:01:01;;;;;;;6.43;4.93;;;9.40;99.90;;;;;;5056537;28;20235;-75
2024/04/01 06:03:29;;;;;;;4.93;4.27;;;9.40;99.90;;;;;;5056989;28;20208;-73
2024/04/01 06:05:54;;;;;;;6.80;5.23;;;9.40;99.90;;;;;;5056729;28;20244;-73
2024/04/01 06:08:21;;;;;;;6.70;6.00;;;9.40;99.90;;;;;;5056692;28;20243;-73
2024/04/01 06:10:47;;;;;;;9.40;7.03;;;9.40;99.90;;;;;;5056892;28;20221;-73
2024/04/01 06:13:14;;;;;;;9.53;6.23;;;9.40;99.90;;;;;;5056799;28;20211;-73
2024/04/01 06:15:43;;;;;;;7.53;6.60;;;9.40;99.90;;;;;;5056833;28;20208;-75
2024/04/01 06:18:09;;;;;;;7.13;6.40;;;9.40;99.90;;;;;;5057332;28;20215;-74
2024/04/01 06:20:35;;;;;;;7.70;6.07;;;9.50;99.90;;;;;;5075458;28;20243;-75
2024/04/01 06:23:02;;;;;;;7.10;5.87;;;9.40;99.90;;;;;;5080302;28;20212;-74
2024/04/01 06:25:28;;;;;;;7.70;7.00;;;9.40;99.90;;;;;;5059866;28;20211;-74
2024/04/01 06:27:55;;;;;;;8.90;7.60;;;9.40;99.90;;;;;;5057625;28;20204;-75
2024/04/01 06:30:21;;;;;;;8.63;7.63;;;9.40;99.90;;;;;;5056541;28;20228;-75
2024/04/01 06:32:49;;;;;;;8.20;7.40;;;9.50;99.90;;;;;;5056506;28;20295;-75
2024/04/01 06:35:15;;;;;;;9.57;7.90;;;9.50;99.90;;;;;;5056278;28;20299;-75
2024/04/01 06:37:42;;;;;;;9.27;8.33;;;9.50;99.90;;;;;;5056352;28;20291;-75
2024/04/01 06:40:08;;;;;;;10.67;8.50;;;9.40;99.90;;;;;;5056258;28;20331;-75
2024/04/01 06:42:35;;;;;;;9.80;8.40;;;9.50;99.90;;;;;;5055911;28;20571;-75
2024/04/01 06:45:01;;;;;;;10.60;8.83;;;9.40;99.90;;;;;;5055825;28;20208;-72
2024/04/01 06:47:28;;;;;;;9.73;8.73;;;9.50;99.90;;;;;;5056632;28;20204;-75
2024/04/01 06:49:55;;;;;;;10.23;8.93;;;9.40;99.90;;;;;;5056044;28;20211;-74
2024/04/01 06:52:22;;;;;;;8.70;7.90;;;9.50;99.90;;;;;;5055659;28;20255;-73
2024/04/01 06:54:48;;;;;;;8.97;8.17;;;9.40;99.90;;;;;;5055298;28;20208;-73
2024/04/01 06:57:15;;;;;;;9.73;8.73;;;9.50;99.90;;;;;;5055556;28;20218;-73
2024/04/01 06:59:41;;;;;;;8.70;7.90;;;9.40;99.90;;;;;;5055751;28;20228;-73
2024/04/01 07:02:08;;;;;;;11.03;8.13;;;9.40;99.90;;;;;;5055589;28;20251;-73
2024/04/01 07:04:34;;;;;;;10.03;8.93;;;9.50;99.90;;;;;;5055791;28;20208;-75
2024/04/01 07:07:02;;;;;;;9.10;8.23;;;9.40;99.90;;;;;;5055611;28;20290;-75
2024/04/01 07:09:28;;;;;;;10.93;9.73;;;9.40;99.90;;;;;;5055615;28;20207;-75
2024/04/01 07:11:55;;;;;;;11.10;10.07;;;9.30;99.90;;;;;;5055625;28;20318;-75
2024/04/01 07:14:21;;;;;;;10.60;9.60;;;9.30;99.90;;;;;;5055447;28;20678;-75
2024/04/01 07:16:47;;;;;;;11.43;10.33;;;9.20;99.90;;;;;;5055382;28;20204;-77
2024/04/01 07:19:13;;;;;;;9.57;8.57;;;9.20;99.90;;;;;;5055853;28;20326;-76
2024/04/01 07:21:40;;;;;;;7.60;6.90;;;9.20;99.90;;;;;;5055046;28;20773;-75
2024/04/01 07:24:08;;;;;;;7.87;7.17;;;9.20;99.90;;;;;;5055370;28;20212;-75
2024/04/01 07:26:35;;;;;;;9.60;6.90;;;9.30;99.90;;;;;;5055253;28;20212;-73
2024/04/01 07:29:00;;;;;;;9.23;7.40;;;9.40;99.90;;;;;;5054944;28;20688;-75
2024/04/01 07:31:27;;;;;;;8.97;8.07;;;9.30;99.90;;;;;;5054892;28;20315;-73
2024/04/01 07:33:53;;;;;;;8.30;7.50;;;9.30;99.90;;;;;;5055206;28;20211;-73
2024/04/01 07:36:20;;;;;;;10.50;8.50;;;9.30;99.90;;;;;;5055333;28;20287;-75
2024/04/01 07:38:46;;;;;;;9.87;8.87;;;9.30;99.90;;;;;;5055133;28;20216;-75
2024/04/01 07:41:14;;;;;;;9.47;8.47;;;9.30;99.90;;;;;;5054961;28;20644;-75
2024/04/01 07:43:40;;;;;;;8.67;7.83;;;9.30;99.90;;;;;;5055030;28;20219;-75
2024/04/01 07:46:06;;;;;;;7.43;6.73;;;9.30;99.90;;;;;;5054980;28;20295;-75
2024/04/01 07:48:32;;;;;;;8.03;7.23;;;9.30;99.90;;;;;;5055020;28;20236;-75
2024/04/01 07:51:03;;;;;;;7.63;6.90;;;9.30;99.90;;;;;;5054772;28;20216;-75
2024/04/01 07:53:29;;;;;;;9.23;6.87;;;9.20;99.90;;;;;;5054985;28;20193;-75
2024/04/01 07:55:56;;;;;;;6.70;5.40;;;9.10;99.90;;;;;;5054592;28;20695;-75
2024/04/01 07:58:23;;;;;;;5.17;3.80;;;9.20;99.90;;;;;;5054773;28;20247;-75
2024/04/01 08:00:53;;;;;;;4.13;3.73;;;9.20;99.90;;;;;;5054503;28;20302;-75
2024/04/01 08:03:19;;;;;;;3.87;3.30;;;9.20;99.90;;;;;;5054395;28;20646;-75
2024/04/01 08:05:46;;;;;;;3.77;3.30;;;9.10;99.90;;;;;;5053227;28;20208;-75
2024/04/01 08:08:12;;;;;;;2.97;2.53;;;9.10;99.90;;;;;;5054160;28;20286;-75
2024/04/01 08:10:38;;;;;;;2.50;2.30;;;9.20;99.90;;;;;;5054042;28;20314;-75
2024/04/01 08:13:05;;;;;;;2.20;2.03;;;9.20;99.90;;;;;;5053785;28;20215;-75
2024/04/01 08:15:33;;;;;;;1.50;1.40;;;9.10;99.90;;;;;;5053489;28;20290;-76
2024/04/01 08:17:59;;;;;;;1.30;1.03;;;9.10;99.90;;;;;;5054817;28;20211;-75
2024/04/01 08:20:26;;;;;;;0.80;0.80;;;9.00;99.90;;;;;;5055051;28;20318;-75
2024/04/01 08:22:51;;;;;;;1.00;1.00;;;9.00;99.90;;;;;;5055089;28;20216;-76
2024/04/01 08:25:18;;;;;;;1.20;0.97;;;9.00;99.90;;;;;;5054120;28;20223;-74
2024/04/01 08:27:44;;;;;;;0.80;0.80;;;8.90;99.90;;;;;;5054132;28;20311;-75
2024/04/01 08:30:12;;;;;;;0.93;0.93;;;9.00;99.90;;;;;;5053912;28;20721;-75
2024/04/01 08:32:39;;;;;;;0.80;0.80;;;9.00;99.90;;;;;;5053891;28;20290;-75
2024/04/01 08:35:06;;;;;;;1.03;0.50;;;9.00;99.90;;;;;;5053874;28;20299;-75
2024/04/01 08:37:32;;;;;;;0.67;0.67;;;9.00;99.90;;;;;;5053547;28;20218;-74
2024/04/01 08:39:59;;;;;;;3.80;0.60;;;9.00;99.90;;;;;;5053683;28;20311;-74
2024/04/01 08:42:28;;;;;;;0.60;0.60;;;8.90;99.90;;;;;;5053611;28;20234;-76
2024/04/01 08:44:59;;;;;;;0.60;0.60;;;8.90;99.90;;;;;;5054134;28;20208;-75
2024/04/01 08:47:29;;;;;;;0.97;0.50;;;8.80;99.90;;;;;;5054104;28;20231;-74
2024/04/01 08:50:03;;;;;;;0.60;0.50;;;8.90;99.90;;;;;;5053503;28;20246;-74
2024/04/01 08:52:48;;;;;;;0.40;0.20;;;8.90;99.90;;;;;;5053750;28;20196;-74
2024/04/01 08:55:16;;;;;;;1.30;0.40;;;8.90;99.90;;;;;;5053823;28;20200;-73
2024/04/01 08:57:42;;;;;;;0.67;0.63;;;8.90;99.90;;;;;;5053465;28;20692;-71
2024/04/01 09:00:11;;;;;;;0.30;0.30;;;8.90;99.90;;;;;;5053637;28;20346;-72
2024/04/01 09:02:37;;;;;;;0.40;0.30;;;8.90;99.90;;;;;;5053721;28;20204;-73
2024/04/01 09:05:07;;;;;;;0.47;0.47;;;9.00;99.90;;;;;;5053799;28;20204;-73
2024/04/01 09:07:34;;;;;;;0.60;0.57;;;9.00;99.90;;;;;;5053598;28;20196;-72
2024/04/01 09:10:01;;;;;;;0.43;0.43;;;9.10;99.90;;;;;;5053130;28;20658;-73
2024/04/01 09:12:27;;;;;;;0.67;0.33;;;9.10;99.90;;;;;;5053782;28;20597;-73
2024/04/01 09:14:54;;;;;;;0.50;0.50;;;9.10;99.90;;;;;;5053973;28;20208;-74
2024/04/01 09:17:24;;;;;;;0.57;0.57;;;9.10;99.90;;;;;;5055690;28;20212;-73
2024/04/01 09:19:51;;;;;;;0.73;0.73;;;9.20;99.90;;;;;;5059828;28;20247;-73
2024/04/01 09:22:18;;;;;;;0.30;0.30;;;9.40;99.90;;;;;;5059997;28;20603;-72
2024/04/01 09:24:46;;;;;;;0.33;0.33;;;9.60;99.90;;;;;;5060110;28;20212;-74
2024/04/01 09:27:12;;;;;;;0.40;0.40;;;9.40;99.90;;;;;;5060269;28;20306;-75
2024/04/01 09:29:39;;;;;;;0.50;0.40;;;9.40;99.90;;;;;;5060110;28;20688;-72
2024/04/01 09:32:05;;;;;;;0.50;0.50;;;9.50;99.90;;;;;;5059668;28;20227;-73
2024/04/01 09:34:32;;;;;;;0.40;0.40;;;9.50;99.90;;;;;;5059861;28;20265;-72
2024/04/01 09:36:59;;;;;;;0.40;0.40;;;9.40;99.90;;;;;;5059893;28;20265;-72
2024/04/01 09:39:28;;;;;;;0.73;0.60;;;9.30;99.90;;;;;;5059816;28;20668;-72
2024/04/01 09:41:54;;;;;;;0.30;0.20;;;9.30;99.90;;;;;;5059770;28;20236;-71
2024/04/01 09:44:21;;;;;;;0.40;0.40;;;9.40;99.90;;;;;;5059948;28;20633;-73
2024/04/01 09:46:47;;;;;;;0.87;0.47;;;9.40;99.90;;;;;;5059860;28;20204;-74
2024/04/01 09:49:16;;;;;;;0.43;0.43;;;9.50;99.90;;;;;;5059980;28;20250;-73
2024/04/01 09:51:43;;;;;;;0.63;0.50;;;9.60;99.90;;;;;;5059560;28;20224;-73
2024/04/01 09:54:10;;;;;;;0.70;0.70;;;9.50;99.90;;;;;;5060065;28;20210;-74
2024/04/01 09:57:15;;;;;;;0.40;0.30;;;9.40;99.90;;;;;;5060477;28;20235;-73
2024/04/01 10:00:14;;;;;;;0.40;0.40;;;9.30;99.90;;;;;;5060867;28;20211;-74
2024/04/01 10:03:21;;;;;;;0.33;0.33;;;9.20;99.90;;;;;;5053724;28;20644;-74
2024/04/01 10:06:34;;;;;;;0.30;0.27;;;9.20;99.90;;;;;;5083748;28;20206;-74
2024/04/01 10:09:33;;;;;;;0.50;0.50;;;9.20;99.90;;;;;;5067377;28;20299;-73
2024/04/01 10:12:24;;;;;;;2.43;0.50;;;9.40;99.90;;;;;;5043992;28;20601;-73
2024/04/01 10:15:23;;;;;;;0.70;0.40;;;9.60;99.90;;;;;;5060186;28;20192;-72
2024/04/01 10:18:14;;;;;;;0.40;0.40;;;9.90;99.90;;;;;;5050803;28;20684;-73
2024/04/01 10:21:19;;;;;;;0.57;0.43;;;9.90;99.90;;;;;;5059299;28;20228;-72
2024/04/01 10:24:23;;;;;;;0.57;0.57;;;9.90;99.90;;;;;;5059281;28;20573;-73
2024/04/01 10:27:29;;;;;;;0.40;0.40;;;9.80;99.90;;;;;;5047054;28;20220;-72
2024/04/01 10:30:16;;;;;;;0.20;0.20;;;9.80;99.90;;;;;;5056256;28;20199;-73
2024/04/01 10:33:16;;;;;;;0.40;0.30;;;9.80;99.90;;;;;;5056540;28;20224;-73
2024/04/01 10:36:08;;;;;;;0.43;0.40;;;9.90;99.90;;;;;;5052846;28;20204;-73
2024/04/01 10:39:10;;;;;;;1.60;1.50;;;9.90;99.90;;;;;;5056269;28;20246;-73
2024/04/01 10:42:15;;;;;;;0.77;0.70;;;10.00;99.90;;;;;;5056091;28;20254;-71
2024/04/01 10:45:31;;;;;;;0.20;0.20;;;10.00;99.90;;;;;;5055699;28;20212;-71
2024/04/01 10:48:15;;;;;;;0.50;0.50;;;10.00;99.90;;;;;;5056191;28;20566;-72
2024/04/01 10:51:25;;;;;;;0.40;0.40;;;10.00;99.90;;;;;;5055995;28;20583;-72
2024/04/01 10:54:01;;;;;;;0.80;0.80;;;10.10;99.90;;;;;;5055959;28;20224;-72
2024/04/01 10:57:06;;;;;;;0.20;0.17;;;10.10;99.90;;;;;;5055855;28;20196;-72
2024/04/01 11:00:13;;;;;;;0.30;0.30;;;10.10;99.90;;;;;;5055466;28;20196;-74
2024/04/01 11:03:25;;;;;;;0.40;0.40;;;10.10;99.90;;;;;;5055613;28;20231;-74
2024/04/01 11:06:29;;;;;;;0.20;0.20;;;10.10;99.90;;;;;;5055583;28;20264;-72
2024/04/01 11:09:27;;;;;;;0.10;0.10;;;10.20;99.90;;;;;;5056836;28;20211;-74
2024/04/01 11:12:03;;;;;;;0.40;0.40;;;10.20;99.90;;;;;;5055573;28;20224;-74
2024/04/01 11:14:34;;;;;;;0.27;0.20;;;10.20;99.90;;;;;;5055318;28;20282;-72
2024/04/01 11:17:06;;;;;;;0.20;0.20;;;10.30;99.90;;;;;;5055358;28;20267;-72
2024/04/01 11:19:53;;;;;;;0.40;0.40;;;10.30;99.90;;;;;;5055742;28;20208;-72
2024/04/01 11:22:33;;;;;;;0.30;0.30;;;10.30;99.90;;;;;;5055288;28;20228;-72
2024/04/01 11:25:14;;;;;;;0.13;0.13;;;10.30;99.90;;;;;;5055262;28;20207;-72
2024/04/01 11:28:00;;;;;;;0.20;0.20;;;10.50;99.90;;;;;;5055295;28;20250;-72
2024/04/01 11:30:34;;;;;;;0.30;0.30;;;10.50;99.90;;;;;;5055267;28;20305;-72
2024/04/01 11:33:06;;;;;;;0.20;0.20;;;10.50;99.90;;;;;;5055677;28;20246;-74
2024/04/01 11:35:46;;;;;;;0.17;0.17;;;10.50;99.90;;;;;;5054812;28;20646;-74
2024/04/01 11:38:24;;;;;;;0.13;0.03;;;10.60;99.90;;;;;;5055152;28;20600;-74
2024/04/01 11:40:52;;;;;;;0.13;0.13;;;10.60;99.90;;;;;;5055163;28;20242;-73
2024/04/01 11:43:22;;;;;;;0.10;0.10;;;10.60;99.90;;;;;;5054883;28;20192;-74
2024/04/01 11:45:52;;;;;;;0.10;0.10;;;10.70;99.90;;;;;;5055106;28;20618;-74
2024/04/01 11:48:24;;;;;;;1.53;1.13;;;10.60;99.90;;;;;;5054798;28;20260;-74
2024/04/01 11:50:53;;;;;;;1.67;0.50;;;10.50;99.90;;;;;;5054396;28;20259;-74
2024/04/01 11:53:23;;;;;;;0.73;0.30;;;10.20;99.90;;;;;;5054455;28;20295;-74
2024/04/01 11:55:51;;;;;;;1.07;0.40;;;9.30;99.90;;;;;;5055713;28;20212;-74
2024/04/01 11:58:21;;;;;;;0.83;0.40;;;8.80;99.90;;;;;;5054897;28;20204;-75
2024/04/01 12:00:53;;;;;;;0.20;0.20;;;8.70;99.90;;;;;;5054376;28;20240;-74
2024/04/01 12:03:26;;;;;;;0.30;0.30;;;8.70;99.90;;;;;;5054494;28;20239;-75
2024/04/01 12:05:55;;;;;;;0.30;0.30;;;8.80;99.90;;;;;;5054547;28;20199;-74
2024/04/01 12:08:30;;;;;;;0.30;0.30;;;8.90;99.90;;;;;;5054434;28;20207;-74
2024/04/01 12:11:04;;;;;;;0.10;0.10;;;9.00;99.90;;;;;;5054297;28;20228;-74
2024/04/01 12:13:33;;;;;;;0.30;0.20;;;8.90;99.90;;;;;;5054609;28;20275;-75
2024/04/01 12:16:01;;;;;;;0.20;0.20;;;8.90;99.90;;;;;;5056087;28;20208;-75
2024/04/01 12:18:42;;;;;;;0.30;0.30;;;8.90;99.90;;;;;;5054238;28;20583;-74
2024/04/01 12:21:10;;;;;;;0.77;0.17;;;8.90;99.90;;;;;;5053969;28;20232;-74
2024/04/01 12:23:39;;;;;;;0.93;0.30;;;8.90;99.90;;;;;;5054047;28;20287;-74
2024/04/01 12:26:10;;;;;;;0.43;0.23;;;8.90;99.90;;;;;;5054673;28;20219;-75
2024/04/01 12:28:39;;;;;;;0.73;0.30;;;8.90;99.90;;;;;;5054564;28;20270;-74
2024/04/01 12:31:07;;;;;;;0.23;0.23;;;9.00;99.90;;;;;;5054441;28;20297;-74
2024/04/01 12:33:37;;;;;;;0.20;0.20;;;9.10;99.90;;;;;;5054480;28;20204;-75
2024/04/01 12:36:06;;;;;;;0.30;0.30;;;9.10;99.90;;;;;;5054392;28;20303;-74
2024/04/01 12:38:34;;;;;;;0.27;0.27;;;9.20;99.90;;;;;;5053875;28;20291;-74
2024/04/01 12:41:01;;;;;;;0.63;0.40;;;9.20;99.90;;;;;;5053777;28;20264;-75
2024/04/01 12:43:28;;;;;;;1.27;0.90;;;9.30;99.90;;;;;;5054169;28;20266;-75
2024/04/01 12:45:57;;;;;;;0.80;0.40;;;9.40;99.90;;;;;;5054008;28;20696;-75
2024/04/01 12:48:26;;;;;;;0.40;0.40;;;9.50;99.90;;;;;;5054135;28;20315;-74
2024/04/01 12:50:56;;;;;;;0.30;0.20;;;9.60;99.90;;;;;;5054337;28;20228;-74
2024/04/01 12:53:48;;;;;;;1.33;0.20;;;9.60;99.90;;;;;;5053513;28;20196;-74
2024/04/01 12:56:28;;;;;;;0.27;0.27;;;9.50;99.90;;;;;;5054096;28;20188;-74
2024/04/01 12:59:18;;;;;;;0.53;0.53;;;9.40;99.90;;;;;;5053657;28;20184;-73
2024/04/01 13:02:04;;;;;;;0.13;0.13;;;9.40;99.90;;;;;;5053925;28;20233;-72
2024/04/01 13:04:47;;;;;;;0.20;0.20;;;9.40;99.90;;;;;;5053861;28;20271;-75
2024/04/01 13:07:25;;;;;;;0.20;0.20;;;9.40;99.90;;;;;;5054234;28;20220;-72
2024/04/01 13:10:00;;;;;;;0.17;0.17;;;9.40;99.90;;;;;;5053765;28;20196;-74